Stations météo

Publicité
Edinburgh, Grande-Bretagne (3160): Température de l'air & dewpoint: 13.09.2020 08:00:00 - 19.09.2020 08:00:00 (BST)Edinburgh, Grande-Bretagne (3160): Vitesse du vent: 13.09.2020 08:00:00 - 19.09.2020 08:00:00 (BST)Edinburgh, Grande-Bretagne (3160): Direction du vent: 13.09.2020 08:00:00 - 19.09.2020 08:00:00 (BST)Edinburgh, Grande-Bretagne (3160): visibility: 13.09.2020 08:00:00 - 19.09.2020 08:00:00 (BST)
Date & Time tt [°C] td [°C] ff [km/h] ff [knt] dd vv [km]
19.09.2020 08:00:00 3,0 3,0 2 1 - 10
19.09.2020 07:00:00 3,0 3,0 2 1 - 10
19.09.2020 06:00:00 3,0 3,0 2 1 SW 10
19.09.2020 05:00:00 3,0 3,0 2 1 - 10
19.09.2020 04:00:00 4,0 4,0 4 2 SSW 10
19.09.2020 03:00:00 - - - - - -
19.09.2020 02:00:00 7,0 6,0 2 1 - 10
19.09.2020 01:00:00 7,0 7,0 11 6 E 10
19.09.2020 00:00:00 8,0 7,0 11 6 E 10
18.09.2020 23:00:00 8,0 7,0 11 6 ENE 10
18.09.2020 22:00:00 10,0 9,0 9 5 NE 10
18.09.2020 21:00:00 12,0 11,0 9 5 NE 10
18.09.2020 20:00:00 13,0 11,0 13 7 NE 10
18.09.2020 19:00:00 13,0 11,0 15 8 NE 10
18.09.2020 18:00:00 14,0 11,0 18 10 NE 10
18.09.2020 17:00:00 14,0 11,0 21 11 ENE 10
18.09.2020 16:00:00 16,0 11,0 16 9 NE 10
18.09.2020 15:00:00 16,0 12,0 15 8 ENE 10
18.09.2020 14:00:00 17,0 11,0 16 9 NE 10
18.09.2020 13:00:00 17,0 12,0 15 8 NE 10
18.09.2020 12:00:00 17,0 13,0 9 5 NE 10
18.09.2020 11:00:00 16,0 12,0 4 2 - 10
18.09.2020 10:00:00 13,0 11,0 2 1 - 10
18.09.2020 09:00:00 10,0 10,0 4 2 - 10
18.09.2020 08:00:00 7,0 7,0 2 1 NW 10
18.09.2020 07:00:00 7,0 7,0 5 3 - 10
18.09.2020 06:00:00 6,0 6,0 4 2 NW 10
18.09.2020 05:00:00 6,0 6,0 0 0 N 10
18.09.2020 04:00:00 7,0 7,0 2 1 SE 10
18.09.2020 03:00:00 7,0 7,0 0 0 N 10
18.09.2020 02:00:00 7,0 7,0 0 0 N 10
18.09.2020 01:00:00 8,0 8,0 4 2 SW 8
18.09.2020 00:00:00 8,0 8,0 2 1 WSW 7
17.09.2020 23:00:00 9,0 9,0 2 1 W 3,3
17.09.2020 22:00:00 9,0 9,0 2 1 - 10
17.09.2020 21:00:00 11,0 11,0 4 2 NE 10
17.09.2020 20:00:00 11,0 10,0 5 3 NE 10
17.09.2020 19:00:00 13,0 10,0 9 5 NE 10
17.09.2020 18:00:00 16,0 12,0 9 5 NE 10
17.09.2020 17:00:00 17,0 11,0 11 6 NE 10
17.09.2020 16:00:00 18,0 11,0 11 6 NE 10
17.09.2020 15:00:00 17,0 11,0 11 6 NE 10
17.09.2020 14:00:00 17,0 11,0 9 5 NE 10
17.09.2020 13:00:00 17,0 10,0 4 2 - 10
17.09.2020 12:00:00 15,0 9,0 5 3 - 10
17.09.2020 11:00:00 14,0 9,0 4 2 - 10
17.09.2020 10:00:00 13,0 9,0 8 4 W 10
17.09.2020 09:00:00 10,0 9,0 5 3 - 10
17.09.2020 08:00:00 8,0 8,0 8 4 SW 10
17.09.2020 07:00:00 8,0 7,0 4 2 WSW 10
17.09.2020 06:00:00 9,0 8,0 4 2 WNW 10
17.09.2020 05:00:00 10,0 8,0 5 3 WSW 10
17.09.2020 04:00:00 9,0 8,0 9 5 NE 10
17.09.2020 03:00:00 8,0 7,0 4 2 ENE 10
17.09.2020 02:00:00 9,0 7,0 8 4 NE 10
17.09.2020 01:00:00 11,0 8,0 11 6 E 10
17.09.2020 00:00:00 12,0 9,0 9 5 E 10
16.09.2020 23:00:00 12,0 9,0 11 6 E 10
16.09.2020 22:00:00 12,0 9,0 11 6 E 10
16.09.2020 21:00:00 12,0 9,0 15 8 E 10
16.09.2020 20:00:00 12,0 9,0 15 8 ENE 10
16.09.2020 19:00:00 12,0 9,0 15 8 ENE 10
16.09.2020 18:00:00 13,0 9,0 18 10 ENE 10
16.09.2020 17:00:00 13,0 9,0 21 11 ENE 10
16.09.2020 16:00:00 13,0 9,0 18 10 E 10
16.09.2020 15:00:00 13,0 9,0 21 11 ENE 10
16.09.2020 14:00:00 13,0 9,0 22 12 ENE 10
16.09.2020 13:00:00 13,0 9,0 26 14 ENE 10
16.09.2020 12:00:00 12,0 9,0 24 13 ENE 10
16.09.2020 11:00:00 12,0 9,0 22 12 ENE 10
16.09.2020 10:00:00 12,0 10,0 21 11 ENE 10
16.09.2020 09:00:00 12,0 10,0 26 14 ENE 10
16.09.2020 08:00:00 12,0 10,0 22 12 ENE 10
16.09.2020 07:00:00 12,0 10,0 22 12 ENE 10
16.09.2020 06:00:00 12,0 10,0 22 12 ENE 10
16.09.2020 05:00:00 13,0 11,0 18 10 E 10
16.09.2020 04:00:00 13,0 12,0 22 12 E 10
16.09.2020 03:00:00 14,0 12,0 24 13 E 10
16.09.2020 02:00:00 14,0 14,0 24 13 E 10
16.09.2020 01:00:00 14,0 14,0 4 2 SW 7
16.09.2020 00:00:00 14,0 13,0 11 6 WSW 7
15.09.2020 23:00:00 13,0 12,0 8 4 WSW 7
15.09.2020 22:00:00 13,0 13,0 5 3 - 7
15.09.2020 21:00:00 15,0 14,0 5 3 SW 10
15.09.2020 20:00:00 16,0 14,0 5 3 WSW 10
15.09.2020 19:00:00 19,0 15,0 0 0 N 10
15.09.2020 18:00:00 18,0 14,0 4 2 - 10
15.09.2020 17:00:00 19,0 14,0 8 4 NE 10
15.09.2020 16:00:00 18,0 15,0 8 4 NE 10
15.09.2020 15:00:00 19,0 15,0 5 3 - 10
15.09.2020 14:00:00 18,0 15,0 8 4 NE 10
15.09.2020 13:00:00 19,0 16,0 8 4 ENE 10
15.09.2020 12:00:00 17,0 15,0 8 4 E 10
15.09.2020 11:00:00 15,0 15,0 2 1 ESE 10
15.09.2020 10:00:00 15,0 14,0 2 1 NW 10
15.09.2020 09:00:00 14,0 14,0 2 1 - 10
15.09.2020 08:00:00 13,0 13,0 5 3 - 10
15.09.2020 07:00:00 12,0 12,0 2 1 - 10
15.09.2020 06:00:00 12,0 12,0 8 4 WSW 8
15.09.2020 05:00:00 11,0 11,0 4 2 - 10
15.09.2020 04:00:00 12,0 12,0 2 1 - 10
15.09.2020 03:00:00 12,0 12,0 4 2 W 10
15.09.2020 02:00:00 13,0 13,0 0 0 N 10
15.09.2020 01:00:00 13,0 13,0 2 1 NW 9
15.09.2020 00:00:00 14,0 14,0 2 1 - 10
14.09.2020 23:00:00 14,0 14,0 2 1 NNE 10
14.09.2020 22:00:00 14,0 13,0 2 1 - 10
14.09.2020 21:00:00 15,0 14,0 2 1 W 10
14.09.2020 20:00:00 16,0 14,0 2 1 - 10
14.09.2020 19:00:00 18,0 15,0 8 4 NE 10
14.09.2020 18:00:00 20,0 15,0 2 1 WNW 10
14.09.2020 17:00:00 19,0 15,0 8 4 SW 10
14.09.2020 16:00:00 19,0 15,0 11 6 WSW 10
14.09.2020 15:00:00 19,0 14,0 15 8 SW 10
14.09.2020 14:00:00 19,0 14,0 15 8 SW 10
14.09.2020 13:00:00 18,0 13,0 11 6 W 10
14.09.2020 12:00:00 18,0 13,0 18 10 WSW 10
14.09.2020 11:00:00 17,0 13,0 16 9 WSW 10
14.09.2020 10:00:00 16,0 13,0 13 7 WSW 10
14.09.2020 09:00:00 16,0 13,0 15 8 WSW 10
14.09.2020 08:00:00 15,0 13,0 13 7 WSW 10
14.09.2020 07:00:00 15,0 13,0 15 8 WSW 10
14.09.2020 06:00:00 15,0 13,0 16 9 SW 10
14.09.2020 05:00:00 15,0 13,0 13 7 SW 10
14.09.2020 04:00:00 16,0 14,0 22 12 SW 10
14.09.2020 03:00:00 16,0 14,0 21 11 SW 10
14.09.2020 02:00:00 16,0 14,0 22 12 SW 10
14.09.2020 01:00:00 16,0 14,0 21 11 SW 10
14.09.2020 00:00:00 16,0 14,0 22 12 SW 10
13.09.2020 23:00:00 17,0 14,0 26 14 SW 10
13.09.2020 22:00:00 16,0 14,0 22 12 SW 10
13.09.2020 21:00:00 17,0 14,0 29 16 SW 10
13.09.2020 20:00:00 17,0 14,0 26 14 SW 10
13.09.2020 19:00:00 19,0 14,0 29 16 SW 10
13.09.2020 18:00:00 19,0 15,0 29 16 SW 10
13.09.2020 17:00:00 19,0 15,0 29 16 SW 10
13.09.2020 16:00:00 20,0 15,0 39 21 SSW 10
13.09.2020 15:00:00 19,0 15,0 34 18 SW 10
13.09.2020 14:00:00 19,0 15,0 34 18 SSW 10
13.09.2020 13:00:00 20,0 15,0 39 21 SW 10
13.09.2020 12:00:00 18,0 15,0 28 15 SW 10
13.09.2020 11:00:00 18,0 15,0 35 19 SW 10
13.09.2020 10:00:00 17,0 14,0 28 15 WSW 10
13.09.2020 09:00:00 17,0 14,0 31 17 WSW 10
13.09.2020 08:00:00 16,0 14,0 35 19 WSW 10

tt = Température de l'air
td = dewpoint
ff = Vitesse du vent
dd = Direction du vent
vv = visibility

stations d'obs. à proximité